Time;durP1;ratioP1;P1;durP2;ratioP2;P2;SDS_P1;SDS_P2;PMS_P1;PMS_P2;Temp;Humidity;BMP_temperature;BMP_pressure;BME280_temperature;BME280_humidity;BME280_pressure;Samples;Min_cycle;Max_cycle;Signal;HPM_P1;HPM_P2
2022/01/03 00:00:19;;;;;;;1.55;0.63;;;9.60;99.90;;;;;;5066055;28;20219;-43
2022/01/03 00:02:48;;;;;;;1.60;0.73;;;9.60;99.90;;;;;;5055844;28;20199;-43
2022/01/03 00:05:14;;;;;;;4.25;1.00;;;9.60;99.90;;;;;;5082283;28;20206;-43
2022/01/03 00:07:44;;;;;;;2.92;1.00;;;9.70;99.90;;;;;;5076559;28;20203;-43
2022/01/03 00:10:12;;;;;;;3.10;1.13;;;9.60;99.90;;;;;;5070465;28;20219;-43
2022/01/03 00:12:40;;;;;;;1.57;0.80;;;9.60;99.90;;;;;;5077339;28;20212;-43
2022/01/03 00:15:10;;;;;;;2.00;1.02;;;9.60;99.90;;;;;;5052780;28;20235;-43
2022/01/03 00:17:37;;;;;;;2.53;0.80;;;9.50;99.90;;;;;;5075661;27;20675;-43
2022/01/03 00:20:07;;;;;;;2.60;0.70;;;9.50;99.90;;;;;;5072726;28;20204;-42
2022/01/03 00:22:43;;;;;;;3.07;0.90;;;9.50;99.90;;;;;;5072180;28;20873;-43
2022/01/03 00:25:16;;;;;;;2.07;0.90;;;9.40;99.90;;;;;;5072689;28;20200;-43
2022/01/03 00:27:49;;;;;;;0.70;0.70;;;9.40;99.90;;;;;;5083801;28;20653;-42
2022/01/03 00:30:19;;;;;;;1.60;0.57;;;9.40;99.90;;;;;;5067867;28;20212;-42
2022/01/03 00:32:48;;;;;;;1.57;0.80;;;9.40;99.90;;;;;;5047661;28;20233;-43
2022/01/03 00:35:17;;;;;;;1.00;0.83;;;9.30;99.90;;;;;;5079747;27;20220;-42
2022/01/03 00:37:45;;;;;;;1.70;1.00;;;9.30;99.90;;;;;;5071176;27;20195;-42
2022/01/03 00:40:13;;;;;;;0.97;0.70;;;9.20;99.90;;;;;;5071069;28;20752;-42
2022/01/03 00:42:41;;;;;;;2.27;0.63;;;9.20;99.90;;;;;;5075105;28;20196;-42
2022/01/03 00:45:08;;;;;;;2.17;0.70;;;9.20;99.90;;;;;;5074444;27;20227;-42
2022/01/03 00:47:36;;;;;;;1.53;0.60;;;9.10;99.90;;;;;;5068167;27;20243;-42
2022/01/03 00:50:05;;;;;;;2.63;0.73;;;8.90;99.90;;;;;;5061366;28;20212;-42
2022/01/03 00:52:34;;;;;;;2.50;0.80;;;8.80;99.90;;;;;;5080482;27;20206;-42
2022/01/03 00:55:02;;;;;;;3.80;0.80;;;8.70;99.90;;;;;;5075968;28;20231;-42
2022/01/03 00:57:42;;;;;;;5.13;1.00;;;8.70;99.90;;;;;;5070022;28;20219;-42
2022/01/03 01:00:10;;;;;;;2.93;0.93;;;8.70;99.90;;;;;;5060066;28;20204;-42
2022/01/03 01:02:38;;;;;;;1.80;1.00;;;8.60;99.90;;;;;;5057152;28;20230;-42
2022/01/03 01:05:06;;;;;;;3.53;1.00;;;8.60;99.90;;;;;;5069056;28;20208;-43
2022/01/03 01:07:35;;;;;;;4.50;0.70;;;8.60;99.90;;;;;;5070405;28;20303;-42
2022/01/03 01:10:04;;;;;;;4.77;0.87;;;8.60;99.90;;;;;;5071442;28;20211;-42
2022/01/03 01:12:32;;;;;;;2.80;0.90;;;8.60;99.90;;;;;;5066397;28;20301;-42
2022/01/03 01:14:59;;;;;;;3.43;0.73;;;8.60;99.90;;;;;;5085845;27;20207;-43
2022/01/03 01:17:27;;;;;;;5.43;1.27;;;8.60;99.90;;;;;;5073193;28;20219;-43
2022/01/03 01:19:54;;;;;;;2.50;0.60;;;8.60;99.90;;;;;;5058773;28;20260;-43
2022/01/03 01:22:22;;;;;;;2.83;0.70;;;8.60;99.90;;;;;;5068706;28;20196;-42
2022/01/03 01:24:58;;;;;;;2.40;0.80;;;8.60;99.90;;;;;;5072427;28;20208;-42
2022/01/03 01:30:11;;;;;;;2.60;0.60;;;8.60;99.90;;;;;;5080001;28;20211;-42
2022/01/03 01:32:42;;;;;;;2.33;0.70;;;8.60;99.90;;;;;;5083353;28;20199;-42
2022/01/03 01:35:10;;;;;;;1.97;0.87;;;8.60;99.90;;;;;;5064128;28;20227;-42
2022/01/03 01:37:39;;;;;;;1.93;0.67;;;8.60;99.90;;;;;;5069118;28;20198;-42
2022/01/03 01:40:08;;;;;;;3.47;0.73;;;8.60;99.90;;;;;;5071929;28;20559;-42
2022/01/03 01:42:37;;;;;;;1.07;0.60;;;8.60;99.90;;;;;;5068290;28;22192;-42
2022/01/03 01:45:09;;;;;;;2.03;0.57;;;8.70;99.90;;;;;;5081245;28;20203;-42
2022/01/03 01:47:40;;;;;;;2.23;0.70;;;8.70;99.90;;;;;;5069432;28;20287;-42
2022/01/03 01:50:08;;;;;;;2.27;0.97;;;8.70;99.90;;;;;;5067354;28;20207;-42
2022/01/03 01:52:37;;;;;;;1.13;0.60;;;8.70;99.90;;;;;;5059003;28;20196;-42
2022/01/03 01:55:11;;;;;;;1.57;0.83;;;8.70;99.90;;;;;;5071602;28;20208;-42
2022/01/03 01:57:54;;;;;;;4.93;1.00;;;8.70;99.90;;;;;;5072507;28;20326;-42
2022/01/03 02:00:21;;;;;;;1.33;0.83;;;8.80;99.90;;;;;;5051500;28;22330;-40
2022/01/03 02:03:01;;;;;;;3.93;1.30;;;8.80;99.90;;;;;;5070822;28;20204;-40
2022/01/03 02:05:32;;;;;;;6.23;0.90;;;8.80;99.90;;;;;;5057108;28;21957;-40
2022/01/03 02:08:05;;;;;;;4.07;1.40;;;8.90;99.90;;;;;;5066365;28;20242;-40
2022/01/03 02:10:39;;;;;;;5.70;1.20;;;8.80;99.90;;;;;;5069343;28;20211;-40
2022/01/03 02:13:07;;;;;;;4.00;1.23;;;8.90;99.90;;;;;;5074415;28;20833;-40
2022/01/03 02:15:36;;;;;;;7.80;1.70;;;8.90;99.90;;;;;;5074274;28;20224;-40
2022/01/03 02:18:05;;;;;;;5.27;1.67;;;8.90;99.90;;;;;;5079756;28;20241;-40
2022/01/03 02:20:33;;;;;;;3.70;1.30;;;9.00;99.90;;;;;;5070831;28;20200;-40
2022/01/03 02:23:01;;;;;;;7.77;1.60;;;8.90;99.90;;;;;;5054270;28;20716;-40
2022/01/03 02:25:28;;;;;;;5.43;1.37;;;9.00;99.90;;;;;;5076863;28;20268;-40
2022/01/03 02:27:56;;;;;;;7.23;1.33;;;9.00;99.90;;;;;;5067579;28;20272;-40
2022/01/03 02:30:26;;;;;;;4.10;1.90;;;9.00;99.90;;;;;;5059987;28;20210;-40
2022/01/03 02:32:53;;;;;;;4.30;1.67;;;9.00;99.90;;;;;;5083762;28;20208;-40
2022/01/03 02:35:21;;;;;;;10.23;2.00;;;9.00;99.90;;;;;;5081136;28;20204;-40
2022/01/03 02:37:50;;;;;;;7.43;1.97;;;9.10;99.90;;;;;;5073393;27;20606;-40
2022/01/03 02:40:18;;;;;;;7.80;1.40;;;9.10;99.90;;;;;;5070336;28;20208;-40
2022/01/03 02:42:45;;;;;;;6.03;1.57;;;9.10;99.90;;;;;;5077073;28;20208;-40
2022/01/03 02:45:14;;;;;;;9.30;1.90;;;9.10;99.90;;;;;;5069732;28;20204;-40
2022/01/03 02:47:45;;;;;;;8.30;1.70;;;9.10;99.90;;;;;;5071830;28;20204;-40
2022/01/03 02:50:12;;;;;;;10.47;1.57;;;9.10;99.90;;;;;;5075169;28;20214;-40
2022/01/03 02:52:39;;;;;;;4.20;1.57;;;9.10;99.90;;;;;;5065550;28;20220;-40
2022/01/03 02:55:09;;;;;;;7.53;1.67;;;9.10;99.90;;;;;;5080533;28;20569;-40
2022/01/03 02:57:37;;;;;;;8.80;1.67;;;9.20;99.90;;;;;;5076379;28;20218;-40
2022/01/03 03:00:07;;;;;;;9.20;2.20;;;9.20;99.90;;;;;;5077396;28;20235;-48
2022/01/03 03:02:34;;;;;;;17.80;2.37;;;9.20;99.90;;;;;;5057396;28;20211;-48
2022/01/03 03:05:02;;;;;;;10.27;1.97;;;9.20;99.90;;;;;;5079985;28;20211;-47
2022/01/03 03:07:30;;;;;;;11.30;2.17;;;9.20;99.90;;;;;;5055162;28;20231;-48
2022/01/03 03:09:58;;;;;;;10.37;2.30;;;9.20;99.90;;;;;;5089514;28;20223;-48
2022/01/03 03:12:28;;;;;;;11.77;2.23;;;9.30;99.90;;;;;;5079303;28;20203;-48
2022/01/03 03:14:55;;;;;;;16.03;2.13;;;9.30;99.90;;;;;;5078081;28;20209;-48
2022/01/03 03:17:22;;;;;;;8.87;2.30;;;9.30;99.90;;;;;;5060343;28;20224;-48
2022/01/03 03:19:54;;;;;;;9.70;2.30;;;9.30;99.90;;;;;;5080513;28;20290;-48
2022/01/03 03:22:21;;;;;;;7.77;1.90;;;9.30;99.90;;;;;;5081793;28;20188;-47
2022/01/03 03:24:48;;;;;;;14.73;2.60;;;9.30;99.90;;;;;;5060783;28;20203;-47
2022/01/03 03:27:15;;;;;;;9.90;1.90;;;9.30;99.90;;;;;;5070633;28;20628;-48
2022/01/03 03:29:49;;;;;;;14.03;2.07;;;9.40;99.90;;;;;;5071351;28;20327;-48
2022/01/03 03:32:17;;;;;;;13.83;2.63;;;9.40;99.90;;;;;;5075424;28;20203;-48
2022/01/03 03:34:46;;;;;;;10.57;1.83;;;9.30;99.90;;;;;;5073260;28;20203;-47
2022/01/03 03:37:13;;;;;;;15.23;2.37;;;9.40;99.90;;;;;;5086007;28;20222;-48
2022/01/03 03:39:40;;;;;;;12.60;2.23;;;9.40;99.90;;;;;;5061198;28;20204;-47
2022/01/03 03:42:08;;;;;;;15.67;2.70;;;9.40;99.90;;;;;;5081926;28;20204;-48
2022/01/03 03:44:36;;;;;;;12.43;2.37;;;9.50;99.90;;;;;;5070820;28;20204;-48
2022/01/03 03:47:06;;;;;;;7.23;2.20;;;9.50;99.90;;;;;;5071405;28;20251;-48
2022/01/03 03:49:33;;;;;;;12.97;2.37;;;9.50;99.90;;;;;;5067539;28;20295;-48
2022/01/03 03:52:01;;;;;;;19.87;3.03;;;9.50;99.90;;;;;;5082092;28;20199;-48
2022/01/03 03:54:29;;;;;;;20.10;3.13;;;9.50;99.90;;;;;;5075072;28;20265;-48
2022/01/03 03:56:57;;;;;;;11.93;2.57;;;9.50;99.90;;;;;;5066276;28;20215;-48
2022/01/03 03:59:24;;;;;;;8.90;2.77;;;9.50;99.90;;;;;;5081965;28;20208;-47
2022/01/03 04:01:51;;;;;;;11.70;2.77;;;9.50;99.90;;;;;;5058035;28;20219;-48
2022/01/03 04:04:19;;;;;;;9.87;2.53;;;9.50;99.90;;;;;;5072471;28;20211;-48
2022/01/03 04:06:46;;;;;;;13.75;2.42;;;9.50;99.90;;;;;;5079440;28;20812;-47
2022/01/03 04:09:14;;;;;;;11.40;2.30;;;9.50;99.90;;;;;;5081814;28;20210;-48
2022/01/03 04:11:41;;;;;;;16.10;2.13;;;9.50;99.90;;;;;;5059325;28;20215;-47
2022/01/03 04:14:08;;;;;;;8.43;2.07;;;9.50;99.90;;;;;;5082727;28;20206;-48
2022/01/03 04:16:36;;;;;;;12.37;2.70;;;9.50;99.90;;;;;;5054906;28;21708;-48
2022/01/03 04:19:04;;;;;;;12.13;2.60;;;9.50;99.90;;;;;;5054633;28;20325;-48
2022/01/03 04:21:33;;;;;;;22.03;2.77;;;9.50;99.90;;;;;;5076935;28;20226;-47
2022/01/03 04:24:00;;;;;;;13.10;2.50;;;9.50;99.90;;;;;;5076120;28;20218;-48
2022/01/03 04:26:27;;;;;;;13.43;2.47;;;9.50;99.90;;;;;;5058761;28;20211;-48
2022/01/03 04:28:54;;;;;;;19.67;5.37;;;9.50;99.90;;;;;;5085622;28;20199;-47
2022/01/03 04:31:21;;;;;;;9.02;2.55;;;9.50;99.90;;;;;;5076444;28;20689;-47
2022/01/03 04:33:48;;;;;;;8.73;2.40;;;9.50;99.90;;;;;;5064912;28;20208;-48
2022/01/03 04:36:15;;;;;;;9.97;2.07;;;9.50;99.90;;;;;;5057331;28;20228;-48
2022/01/03 04:38:43;;;;;;;11.87;2.60;;;9.50;99.90;;;;;;5068502;28;20192;-48
2022/01/03 04:41:12;;;;;;;11.63;2.47;;;9.50;99.90;;;;;;5075117;28;20199;-48
2022/01/03 04:43:41;;;;;;;10.47;2.67;;;9.40;99.90;;;;;;5065886;28;21046;-47
2022/01/03 04:46:07;;;;;;;17.63;3.40;;;9.50;99.90;;;;;;5083938;28;20232;-47
2022/01/03 04:48:34;;;;;;;12.43;3.07;;;9.50;99.90;;;;;;5065907;28;20215;-48
2022/01/03 04:51:01;;;;;;;13.93;2.87;;;9.50;99.90;;;;;;5069722;27;20211;-48
2022/01/03 04:53:28;;;;;;;12.23;2.77;;;9.50;99.90;;;;;;5075993;27;20202;-48
2022/01/03 04:55:57;;;;;;;14.47;2.63;;;9.40;99.90;;;;;;5080800;28;20226;-47
2022/01/03 04:58:23;;;;;;;9.70;2.53;;;9.40;99.90;;;;;;5058404;28;21302;-47
2022/01/03 05:00:50;;;;;;;11.93;2.50;;;9.50;99.90;;;;;;5076142;28;20200;-48
2022/01/03 05:03:17;;;;;;;16.00;3.00;;;9.50;99.90;;;;;;5068099;28;20200;-47
2022/01/03 05:05:45;;;;;;;16.97;2.63;;;9.50;99.90;;;;;;5065344;28;20223;-47
2022/01/03 05:08:12;;;;;;;12.50;2.50;;;9.50;99.90;;;;;;5055419;28;20195;-49
2022/01/03 05:10:38;;;;;;;14.20;3.23;;;9.50;99.90;;;;;;5075562;28;20221;-47
2022/01/03 05:13:07;;;;;;;10.73;2.17;;;9.50;99.90;;;;;;5059794;28;20214;-48
2022/01/03 05:15:34;;;;;;;15.27;3.57;;;9.50;99.90;;;;;;5079854;27;20346;-48
2022/01/03 05:18:00;;;;;;;18.17;3.33;;;9.50;99.90;;;;;;5069589;28;20231;-48
2022/01/03 05:20:27;;;;;;;21.63;3.93;;;9.50;99.90;;;;;;5071143;28;20694;-48
2022/01/03 05:22:54;;;;;;;15.57;3.10;;;9.50;99.90;;;;;;5069220;28;20205;-48
2022/01/03 05:25:21;;;;;;;10.50;3.17;;;9.50;99.90;;;;;;5073180;28;20200;-48
2022/01/03 05:27:49;;;;;;;14.43;2.45;;;9.50;99.90;;;;;;5077405;28;20215;-47
2022/01/03 05:30:17;;;;;;;18.67;3.03;;;9.40;99.90;;;;;;5065414;28;20198;-48
2022/01/03 05:32:44;;;;;;;14.07;2.77;;;9.50;99.90;;;;;;5059339;28;20199;-48
2022/01/03 05:35:11;;;;;;;18.35;2.88;;;9.50;99.90;;;;;;5074168;28;20214;-47
2022/01/03 05:37:38;;;;;;;22.90;3.67;;;9.50;99.90;;;;;;5045539;28;20223;-48
2022/01/03 05:40:06;;;;;;;17.13;3.40;;;9.50;99.90;;;;;;5074719;28;20229;-48
2022/01/03 05:42:33;;;;;;;16.30;3.05;;;9.50;99.90;;;;;;5077662;28;20196;-47
2022/01/03 05:45:00;;;;;;;17.35;2.25;;;9.50;99.90;;;;;;5056581;28;20211;-48
2022/01/03 05:47:30;;;;;;;11.87;2.47;;;9.50;99.90;;;;;;5070443;28;20216;-47
2022/01/03 05:49:57;;;;;;;16.80;3.03;;;9.50;99.90;;;;;;5068098;28;20203;-48
2022/01/03 05:52:24;;;;;;;14.95;3.10;;;9.50;99.90;;;;;;5053826;28;20669;-48
2022/01/03 05:54:52;;;;;;;12.37;2.50;;;9.50;99.90;;;;;;5069724;27;20202;-47
2022/01/03 05:57:19;;;;;;;12.43;2.72;;;9.50;99.90;;;;;;5075429;28;20219;-48
2022/01/03 05:59:46;;;;;;;21.65;2.58;;;9.50;99.90;;;;;;5075398;28;20191;-48
2022/01/03 06:02:13;;;;;;;20.13;3.60;;;9.50;99.90;;;;;;5051417;28;20756;-48
2022/01/03 06:04:54;;;;;;;14.07;2.63;;;9.50;99.90;;;;;;5070356;28;20196;-48
2022/01/03 06:07:21;;;;;;;19.80;3.87;;;9.50;99.90;;;;;;5042012;28;20223;-48
2022/01/03 06:09:49;;;;;;;12.93;2.60;;;9.50;99.90;;;;;;5074166;28;20579;-47
2022/01/03 06:12:17;;;;;;;19.60;3.97;;;9.50;99.90;;;;;;5068071;28;20199;-48
2022/01/03 06:14:45;;;;;;;18.47;2.80;;;9.50;99.90;;;;;;5083060;27;20204;-48
2022/01/03 06:17:13;;;;;;;21.07;3.53;;;9.50;99.90;;;;;;5062716;28;20235;-47
2022/01/03 06:19:42;;;;;;;17.23;3.13;;;9.50;99.90;;;;;;5081827;28;20204;-48
2022/01/03 06:22:11;;;;;;;13.30;2.87;;;9.50;99.90;;;;;;5059019;27;20196;-48
2022/01/03 06:24:40;;;;;;;16.17;2.80;;;9.50;99.90;;;;;;5063988;28;20216;-48
2022/01/03 06:27:07;;;;;;;16.90;3.47;;;9.50;99.90;;;;;;5066366;28;21247;-47
2022/01/03 06:29:35;;;;;;;11.07;2.60;;;9.50;99.90;;;;;;5075309;28;20269;-47
2022/01/03 06:32:02;;;;;;;17.20;2.93;;;9.50;99.90;;;;;;5052924;28;20212;-48
2022/01/03 06:34:29;;;;;;;17.53;3.37;;;9.50;99.90;;;;;;5074103;28;20195;-48
2022/01/03 06:36:58;;;;;;;18.03;3.07;;;9.40;99.90;;;;;;5068317;28;20232;-47
2022/01/03 06:39:25;;;;;;;13.77;3.00;;;9.50;99.90;;;;;;5062869;28;20269;-48
2022/01/03 06:41:51;;;;;;;17.73;3.63;;;9.50;99.90;;;;;;5064166;28;20212;-48
2022/01/03 06:44:18;;;;;;;15.02;3.10;;;9.50;99.90;;;;;;5069072;28;20210;-48
2022/01/03 06:46:47;;;;;;;21.77;3.43;;;9.50;99.90;;;;;;5050733;28;20231;-48
2022/01/03 06:49:15;;;;;;;21.23;4.30;;;9.50;99.90;;;;;;5073991;28;20211;-48
2022/01/03 06:51:42;;;;;;;16.07;3.20;;;9.50;99.90;;;;;;5070485;28;20196;-47
2022/01/03 06:54:12;;;;;;;7.53;2.72;;;9.50;99.90;;;;;;5062422;28;20218;-48
2022/01/03 06:56:39;;;;;;;23.58;3.72;;;9.50;99.90;;;;;;5056238;27;20231;-47
2022/01/03 06:59:06;;;;;;;10.57;3.13;;;9.50;99.90;;;;;;5069523;28;20203;-39
2022/01/03 07:01:33;;;;;;;18.63;3.43;;;9.50;99.90;;;;;;5064014;28;20211;-40
2022/01/03 07:04:00;;;;;;;16.50;3.10;;;9.50;99.90;;;;;;5060206;28;20292;-40
2022/01/03 07:06:27;;;;;;;17.50;3.53;;;9.50;99.90;;;;;;5074667;28;20223;-40
2022/01/03 07:08:54;;;;;;;13.47;2.87;;;9.40;99.90;;;;;;5068648;27;20196;-40
2022/01/03 07:11:22;;;;;;;17.15;2.72;;;9.50;99.90;;;;;;5070754;28;20204;-40
2022/01/03 07:13:53;;;;;;;15.97;3.00;;;9.50;99.90;;;;;;5071489;28;20217;-40
2022/01/03 07:19:06;;;;;;;19.03;3.53;;;9.40;99.90;;;;;;5056885;28;20802;-40
2022/01/03 07:21:35;;;;;;;17.17;2.87;;;9.40;99.90;;;;;;5079292;27;20228;-40
2022/01/03 07:24:02;;;;;;;13.43;2.80;;;9.50;99.90;;;;;;5067576;28;20325;-40
2022/01/03 07:26:30;;;;;;;13.73;3.20;;;9.50;99.90;;;;;;5069795;28;20230;-40
2022/01/03 07:28:57;;;;;;;14.07;2.80;;;9.50;99.90;;;;;;5079639;28;20247;-40
2022/01/03 07:31:24;;;;;;;17.33;3.27;;;9.50;99.90;;;;;;5075814;28;20210;-39
2022/01/03 07:33:51;;;;;;;18.23;3.20;;;9.50;99.90;;;;;;5045731;28;23369;-40
2022/01/03 07:36:17;;;;;;;16.97;3.37;;;9.50;99.90;;;;;;5080373;28;20239;-39
2022/01/03 07:38:46;;;;;;;15.70;3.20;;;9.50;99.90;;;;;;5060378;28;20643;-40
2022/01/03 07:41:15;;;;;;;18.63;3.10;;;9.50;99.90;;;;;;5072112;27;20246;-40
2022/01/03 07:43:44;;;;;;;12.37;3.30;;;9.50;99.90;;;;;;5058346;28;22209;-40
2022/01/03 07:46:11;;;;;;;14.03;3.20;;;9.50;99.90;;;;;;5050233;28;20228;-40
2022/01/03 07:48:38;;;;;;;13.50;2.67;;;9.50;99.90;;;;;;5065602;28;20215;-48
2022/01/03 07:51:05;;;;;;;11.33;3.37;;;9.50;99.90;;;;;;5046929;28;20222;-47
2022/01/03 07:53:32;;;;;;;15.80;3.17;;;9.50;99.90;;;;;;5062641;27;20207;-48
2022/01/03 07:55:59;;;;;;;20.63;3.80;;;9.50;99.90;;;;;;5041456;28;20231;-48
2022/01/03 07:58:26;;;;;;;19.30;4.13;;;9.60;99.90;;;;;;5059239;28;20223;-47
2022/01/03 08:00:54;;;;;;;13.17;2.90;;;9.60;99.90;;;;;;5057386;27;20208;-43
2022/01/03 08:03:22;;;;;;;18.67;3.13;;;9.60;99.90;;;;;;5056854;28;20204;-43
2022/01/03 08:05:50;;;;;;;14.60;2.77;;;9.60;99.90;;;;;;5056801;28;20227;-40
2022/01/03 08:08:17;;;;;;;22.90;3.27;;;9.60;99.90;;;;;;5084922;28;20690;-40
2022/01/03 08:10:45;;;;;;;17.50;4.23;;;9.60;99.90;;;;;;5042186;28;21735;-44
2022/01/03 08:13:12;;;;;;;19.13;3.70;;;9.50;99.90;;;;;;5053300;28;20224;-49
2022/01/03 08:15:39;;;;;;;22.23;4.17;;;9.50;99.90;;;;;;5065660;28;20224;-43
2022/01/03 08:18:08;;;;;;;23.90;3.50;;;9.60;99.90;;;;;;5046926;28;20781;-42
2022/01/03 08:20:35;;;;;;;13.13;3.33;;;9.60;99.90;;;;;;5022248;28;20231;-40
2022/01/03 08:23:02;;;;;;;22.63;4.03;;;9.60;99.90;;;;;;5051712;28;20212;-40
2022/01/03 08:25:31;;;;;;;17.00;3.33;;;9.60;99.90;;;;;;5063709;28;20253;-40
2022/01/03 08:27:58;;;;;;;16.00;3.30;;;9.60;99.90;;;;;;5054857;28;20196;-43
2022/01/03 08:30:25;;;;;;;16.73;3.73;;;9.60;99.90;;;;;;5084704;28;20292;-42
2022/01/03 08:32:52;;;;;;;18.57;3.30;;;9.60;99.90;;;;;;5045239;28;20212;-42
2022/01/03 08:35:20;;;;;;;17.00;3.10;;;9.60;99.90;;;;;;5046834;28;20947;-42
2022/01/03 08:37:47;;;;;;;21.70;4.20;;;9.60;99.90;;;;;;5046556;28;20941;-42
2022/01/03 08:40:14;;;;;;;17.77;3.03;;;9.60;99.90;;;;;;5027375;28;20212;-43
2022/01/03 08:42:41;;;;;;;16.83;3.03;;;9.60;99.90;;;;;;5059958;28;20217;-42
2022/01/03 08:45:09;;;;;;;17.07;3.10;;;9.60;99.90;;;;;;5036549;28;20203;-43
2022/01/03 08:47:36;;;;;;;14.77;2.63;;;9.60;99.90;;;;;;5051258;28;22751;-44
2022/01/03 08:50:05;;;;;;;9.20;2.13;;;9.60;99.90;;;;;;5028996;28;20212;-40
2022/01/03 08:52:34;;;;;;;21.98;3.53;;;9.60;99.90;;;;;;5038545;28;20212;-40
2022/01/03 08:55:01;;;;;;;18.33;3.30;;;9.70;99.90;;;;;;5046603;28;20211;-40
2022/01/03 08:57:28;;;;;;;13.93;3.17;;;9.60;99.90;;;;;;5062023;28;20270;-45
2022/01/03 08:59:55;;;;;;;20.55;3.20;;;9.60;99.90;;;;;;5043356;28;20211;-43
2022/01/03 09:02:22;;;;;;;12.13;2.97;;;9.70;99.90;;;;;;5058551;28;20221;-43
2022/01/03 09:04:49;;;;;;;12.90;2.27;;;9.70;99.90;;;;;;5054945;28;20204;-43
2022/01/03 09:07:16;;;;;;;16.17;2.93;;;9.70;99.90;;;;;;5024821;28;20231;-43
2022/01/03 09:09:44;;;;;;;14.47;3.37;;;9.70;99.90;;;;;;5060571;28;20737;-43
2022/01/03 09:12:11;;;;;;;18.08;3.90;;;9.70;99.90;;;;;;5056478;28;20744;-43
2022/01/03 09:14:38;;;;;;;21.63;3.45;;;9.70;99.90;;;;;;5048715;28;20211;-43
2022/01/03 09:17:07;;;;;;;16.27;3.30;;;9.70;99.90;;;;;;5069221;28;20227;-44
2022/01/03 09:19:35;;;;;;;20.90;4.70;;;9.70;99.90;;;;;;5071091;28;20306;-43
2022/01/03 09:22:10;;;;;;;16.48;2.67;;;9.80;99.90;;;;;;5039402;28;20214;-44
2022/01/03 09:24:47;;;;;;;16.23;2.93;;;9.70;99.90;;;;;;5041417;28;20199;-43
2022/01/03 09:30:02;;;;;;;17.40;3.65;;;9.70;99.90;;;;;;5058244;28;20583;-43
2022/01/03 09:32:29;;;;;;;16.17;3.40;;;9.70;99.90;;;;;;5057422;28;20215;-43
2022/01/03 09:34:58;;;;;;;17.07;3.80;;;9.70;99.90;;;;;;5074820;28;20279;-43
2022/01/03 09:37:25;;;;;;;16.30;3.23;;;9.80;99.90;;;;;;5048033;28;20223;-43
2022/01/03 09:39:54;;;;;;;17.58;3.72;;;9.80;99.90;;;;;;5052874;28;20219;-43
2022/01/03 09:42:24;;;;;;;23.10;6.03;;;9.80;99.90;;;;;;5051365;27;20302;-43
2022/01/03 09:44:53;;;;;;;20.77;3.33;;;9.80;99.90;;;;;;5063730;28;20214;-43
2022/01/03 09:47:21;;;;;;;25.63;3.13;;;9.80;99.90;;;;;;5065812;28;20536;-44
2022/01/03 09:49:48;;;;;;;23.87;3.80;;;9.80;99.90;;;;;;5054317;28;20195;-43
2022/01/03 09:52:17;;;;;;;18.80;3.53;;;9.80;99.90;;;;;;5064344;28;20207;-43
2022/01/03 09:54:45;;;;;;;13.53;3.17;;;9.80;99.90;;;;;;5055765;27;20204;-43
2022/01/03 09:57:13;;;;;;;16.53;3.13;;;9.80;99.90;;;;;;5066979;27;20231;-43
2022/01/03 09:59:44;;;;;;;13.90;2.97;;;9.90;99.90;;;;;;5058199;28;21004;-48
2022/01/03 10:02:13;;;;;;;20.85;4.00;;;9.90;99.90;;;;;;5061706;28;20219;-48
2022/01/03 10:04:40;;;;;;;15.23;3.17;;;9.90;99.90;;;;;;5059927;28;20204;-48
2022/01/03 10:07:10;;;;;;;12.43;2.85;;;9.90;99.90;;;;;;5068629;27;20226;-48
2022/01/03 10:09:39;;;;;;;23.87;3.77;;;10.00;99.90;;;;;;5045228;28;20203;-48
2022/01/03 10:12:09;;;;;;;16.67;3.10;;;10.00;99.90;;;;;;5071757;28;20199;-39
2022/01/03 10:14:36;;;;;;;18.65;3.00;;;9.90;99.90;;;;;;5043027;27;20213;-40
2022/01/03 10:17:05;;;;;;;15.43;2.60;;;9.90;99.90;;;;;;5041929;27;20239;-39
2022/01/03 10:19:49;;;;;;;19.77;3.37;;;9.90;99.90;;;;;;5062387;28;20231;-39
2022/01/03 10:22:21;;;;;;;22.00;3.93;;;9.90;99.90;;;;;;5059664;28;20203;-41
2022/01/03 10:24:48;;;;;;;10.65;2.80;;;9.90;99.90;;;;;;5060545;28;20208;-40
2022/01/03 10:27:15;;;;;;;15.60;2.65;;;9.80;99.90;;;;;;5059615;27;20230;-39
2022/01/03 10:29:42;;;;;;;12.40;2.40;;;9.90;99.90;;;;;;5069677;27;20212;-40
2022/01/03 10:32:12;;;;;;;17.13;3.23;;;9.90;99.90;;;;;;5041888;28;20210;-39
2022/01/03 10:34:39;;;;;;;20.20;3.38;;;9.90;99.90;;;;;;5080006;28;20516;-41
2022/01/03 10:37:12;;;;;;;31.80;4.33;;;10.00;99.90;;;;;;5044115;27;20238;-44
2022/01/03 10:39:39;;;;;;;16.35;3.72;;;10.00;99.90;;;;;;5079871;28;20219;-43
2022/01/03 10:42:17;;;;;;;13.80;3.40;;;10.00;99.90;;;;;;5035238;27;20203;-43
2022/01/03 10:44:44;;;;;;;16.27;3.47;;;10.00;99.90;;;;;;5047788;27;20325;-43
2022/01/03 10:47:16;;;;;;;19.15;3.08;;;10.00;99.90;;;;;;5053085;28;20245;-43
2022/01/03 10:49:46;;;;;;;14.43;3.03;;;10.00;99.90;;;;;;5065745;27;20208;-43
2022/01/03 10:52:16;;;;;;;16.23;4.03;;;10.00;99.90;;;;;;5047077;28;21041;-43
2022/01/03 10:54:44;;;;;;;23.55;3.85;;;10.00;99.90;;;;;;5061727;28;20215;-43
2022/01/03 10:57:11;;;;;;;17.85;4.03;;;10.00;99.90;;;;;;5046049;28;20228;-43
2022/01/03 10:59:38;;;;;;;17.45;3.50;;;10.00;99.90;;;;;;5050060;28;20224;-43
2022/01/03 11:02:10;;;;;;;17.20;3.10;;;10.00;99.90;;;;;;5053452;28;20239;-43
2022/01/03 11:04:46;;;;;;;21.13;3.38;;;9.90;99.90;;;;;;5052335;28;21544;-44
2022/01/03 11:13:09;;;;;;;15.90;3.30;;;10.10;99.90;;;;;;5016323;28;20219;-40
2022/01/03 11:15:38;;;;;;;16.17;2.35;;;10.10;99.90;;;;;;5050036;28;20223;-40
2022/01/03 11:18:16;;;;;;;18.55;3.17;;;10.10;99.90;;;;;;5049922;28;20246;-39
2022/01/03 11:20:47;;;;;;;15.90;3.45;;;10.40;99.90;;;;;;5061099;28;20588;-40
2022/01/03 11:23:23;;;;;;;16.88;2.63;;;10.60;99.90;;;;;;5056389;27;21378;-40
2022/01/03 11:25:52;;;;;;;11.38;2.67;;;10.50;99.90;;;;;;5055055;28;20234;-40
2022/01/03 11:28:19;;;;;;;13.02;3.10;;;10.30;99.90;;;;;;5036028;28;20559;-47
2022/01/03 11:30:47;;;;;;;11.32;3.35;;;10.20;99.90;;;;;;5041212;27;20215;-48
2022/01/03 11:33:16;;;;;;;16.75;3.97;;;10.20;99.90;;;;;;5063015;28;20207;-48
2022/01/03 11:35:49;;;;;;;15.30;3.25;;;10.10;99.90;;;;;;5062906;27;20230;-48
2022/01/03 11:38:19;;;;;;;15.13;3.75;;;10.10;99.90;;;;;;5051651;27;20225;-48
2022/01/03 11:40:46;;;;;;;13.10;2.75;;;10.10;99.90;;;;;;5034558;28;20208;-42
2022/01/03 11:43:14;;;;;;;19.02;3.33;;;10.10;99.90;;;;;;5041718;28;20303;-42
2022/01/03 11:45:42;;;;;;;19.10;3.60;;;10.10;99.90;;;;;;5069562;27;20219;-42
2022/01/03 11:48:09;;;;;;;16.70;3.33;;;10.00;99.90;;;;;;5052540;28;20208;-43
2022/01/03 11:50:37;;;;;;;22.45;3.63;;;10.00;99.90;;;;;;5063921;28;20216;-43
2022/01/03 11:53:07;;;;;;;10.30;2.33;;;10.00;99.90;;;;;;5057347;28;20227;-43
2022/01/03 11:55:35;;;;;;;11.75;2.80;;;10.10;99.90;;;;;;5044452;28;21010;-42
2022/01/03 11:58:24;;;;;;;18.27;3.92;;;10.10;99.90;;;;;;5061450;28;20299;-42
2022/01/03 12:03:50;;;;;;;20.70;3.10;;;10.00;99.90;;;;;;5056243;28;20683;-42
2022/01/03 12:06:26;;;;;;;12.60;2.58;;;10.00;99.90;;;;;;5074251;28;20310;-42
2022/01/03 12:08:58;;;;;;;16.27;2.80;;;10.00;99.90;;;;;;5063051;28;20207;-42
2022/01/03 12:11:26;;;;;;;14.82;3.13;;;10.00;99.90;;;;;;5038010;28;20212;-40
2022/01/03 12:13:55;;;;;;;9.85;2.67;;;10.10;99.90;;;;;;5056018;28;20234;-39
2022/01/03 12:16:40;;;;;;;14.90;3.53;;;10.10;99.90;;;;;;5056623;28;20727;-39
2022/01/03 12:19:10;;;;;;;14.25;3.38;;;10.10;99.90;;;;;;5048293;28;20359;-39
2022/01/03 12:21:54;;;;;;;14.05;2.78;;;10.10;99.90;;;;;;5058245;28;20237;-48
2022/01/03 12:24:56;;;;;;;20.77;2.75;;;10.00;99.90;;;;;;5060796;28;20196;-48
2022/01/03 12:27:41;;;;;;;20.10;3.28;;;10.10;99.90;;;;;;4954586;28;20223;-48
2022/01/03 12:30:34;;;;;;;21.55;3.40;;;10.10;99.90;;;;;;4959198;28;20211;-42
2022/01/03 12:33:19;;;;;;;16.95;2.78;;;10.10;99.90;;;;;;5020331;28;20689;-42
2022/01/03 12:35:48;;;;;;;12.95;2.85;;;10.10;99.90;;;;;;5051019;28;20304;-42
2022/01/03 12:38:23;;;;;;;13.75;2.65;;;10.10;99.90;;;;;;5058128;28;20294;-42
2022/01/03 12:40:59;;;;;;;13.13;2.35;;;10.10;99.90;;;;;;5061775;28;20207;-42
2022/01/03 12:43:45;;;;;;;13.75;2.80;;;10.10;99.90;;;;;;5049809;28;20211;-42
2022/01/03 12:46:23;;;;;;;22.58;3.55;;;10.20;99.90;;;;;;5039412;28;20264;-42
2022/01/03 12:48:55;;;;;;;18.15;3.38;;;10.20;99.90;;;;;;5062193;28;20207;-43
2022/01/03 12:51:22;;;;;;;10.63;2.33;;;10.20;99.90;;;;;;5066082;28;20848;-43
2022/01/03 12:53:54;;;;;;;11.85;3.25;;;10.10;99.90;;;;;;5058521;28;20238;-43
2022/01/03 12:56:32;;;;;;;12.48;2.78;;;10.10;99.90;;;;;;5052772;28;20259;-43
2022/01/03 12:59:10;;;;;;;15.60;2.80;;;10.10;99.90;;;;;;5063351;28;20228;-47
2022/01/03 13:01:37;;;;;;;10.75;3.00;;;10.10;99.90;;;;;;5038991;28;20203;-43
2022/01/03 13:04:20;;;;;;;15.18;3.50;;;10.10;99.90;;;;;;5065184;27;20204;-43
2022/01/03 13:06:47;;;;;;;16.70;3.63;;;10.10;99.90;;;;;;5051551;28;20242;-43
2022/01/03 13:09:14;;;;;;;12.13;2.47;;;10.10;99.90;;;;;;5055521;28;20204;-43
2022/01/03 13:11:44;;;;;;;14.27;2.60;;;10.10;99.90;;;;;;5050331;28;20212;-40
2022/01/03 13:14:15;;;;;;;12.02;2.33;;;10.10;99.90;;;;;;5053212;28;20199;-40